Terminal Aerodrome Forecast
Issued by NWS

Home | Current Version | Previous Version | Text Only | Print | Product List | Glossary On
Versions: 1 2 3 4 5 6 7 8 9 10 11 12 13 14
000
FTUS45 KGJT 250520
TAFRIL
TAF
KRIL 250520Z 2506/2606 16004KT P6SM SKC
     FM251800 31006KT P6SM SCT250
     FM252100 28007KT P6SM FEW110 SCT250
     FM260100 25009KT P6SM SCT250
     FM260200 17008KT P6SM SCT250
     FM260300 14006KT P6SM SCT250=

USA.gov is the U.S. government's official web portal to all federal, state and local government web resources and services.